createdAt,value
2022-12-08T00:01:11.985Z,-1.08
2022-12-08T00:03:40.085Z,-1.18
2022-12-08T00:06:47.481Z,-1.15
2022-12-08T00:09:39.004Z,-1.14
2022-12-08T00:12:18.132Z,-1.15
2022-12-08T00:14:47.092Z,-1.20
2022-12-08T00:17:16.411Z,-1.22
2022-12-08T00:19:44.059Z,-1.22
2022-12-08T00:22:12.846Z,-1.32
2022-12-08T00:24:41.432Z,-1.37
2022-12-08T00:27:09.919Z,-1.43
2022-12-08T00:29:37.133Z,-1.36
2022-12-08T00:32:05.106Z,-1.20
2022-12-08T00:34:32.917Z,-1.06
2022-12-08T00:37:00.072Z,-0.84
2022-12-08T00:39:27.136Z,-0.75
2022-12-08T00:42:12.835Z,-0.53
2022-12-08T00:44:44.106Z,-0.54
2022-12-08T00:47:12.713Z,-0.48
2022-12-08T00:49:39.793Z,-0.44
2022-12-08T00:52:07.259Z,-0.48
2022-12-08T00:54:35.303Z,-0.47
2022-12-08T00:57:02.731Z,-0.78
2022-12-08T00:59:30.103Z,-0.89
2022-12-08T01:01:57.255Z,-0.96
2022-12-08T01:04:24.328Z,-1.05
2022-12-08T01:06:52.560Z,-0.77
2022-12-08T01:09:19.623Z,-0.68
2022-12-08T01:11:47.970Z,-0.81
2022-12-08T01:14:15.239Z,-0.61
2022-12-08T01:16:42.418Z,-0.80
2022-12-08T01:19:12.088Z,-0.57
2022-12-08T01:21:40.201Z,-0.58
2022-12-08T01:24:09.578Z,-0.96
2022-12-08T01:26:36.910Z,-1.15
2022-12-08T01:29:03.840Z,-1.23
2022-12-08T01:31:30.865Z,-1.27
2022-12-08T01:33:58.690Z,-1.32
2022-12-08T01:36:36.935Z,-1.34
2022-12-08T01:39:07.971Z,-1.37
2022-12-08T01:41:37.650Z,-1.40
2022-12-08T01:44:16.320Z,-1.43
2022-12-08T01:46:48.484Z,-1.39
2022-12-08T01:49:26.280Z,-1.49
2022-12-08T01:52:34.548Z,-1.53
2022-12-08T01:55:15.810Z,-1.41
2022-12-08T01:58:03.652Z,-1.33
2022-12-08T02:00:31.096Z,-1.52
2022-12-08T02:02:59.909Z,-1.59
2022-12-08T02:05:33.382Z,-1.65
2022-12-08T02:08:04.574Z,-1.95
2022-12-08T02:10:34.631Z,-1.93
2022-12-08T02:13:02.018Z,-1.88
2022-12-08T02:15:36.236Z,-1.78
2022-12-08T02:18:19.358Z,-1.65
2022-12-08T02:21:24.472Z,-1.70
2022-12-08T02:24:03.768Z,-1.82
2022-12-08T02:26:41.968Z,-1.92
2022-12-08T02:29:26.002Z,-2.03
2022-12-08T02:32:09.636Z,-2.05
2022-12-08T02:35:12.240Z,-2.10
2022-12-08T02:37:53.542Z,-2.04
2022-12-08T02:40:28.799Z,-2.22
2022-12-08T02:43:03.752Z,-2.19
2022-12-08T02:45:36.247Z,-2.25
2022-12-08T02:48:03.643Z,-2.11
2022-12-08T02:50:30.614Z,-2.16
2022-12-08T02:52:57.683Z,-2.01
2022-12-08T02:55:57.311Z,-1.98
2022-12-08T02:58:48.766Z,-2.24
2022-12-08T03:01:45.798Z,-2.18
2022-12-08T03:04:30.892Z,-2.28
2022-12-08T03:07:36.384Z,-2.28
2022-12-08T03:10:37.516Z,-2.33
2022-12-08T03:13:14.891Z,-2.34
2022-12-08T03:15:45.255Z,-2.33
2022-12-08T03:18:16.309Z,-2.35
2022-12-08T03:20:46.203Z,-2.44
2022-12-08T03:23:16.121Z,-2.54
2022-12-08T03:25:59.710Z,-2.68
2022-12-08T03:28:26.954Z,-2.71
2022-12-08T03:30:57.227Z,-2.67
2022-12-08T03:33:30.670Z,-2.81
2022-12-08T03:35:58.794Z,-2.83
2022-12-08T03:38:26.171Z,-2.75
2022-12-08T03:41:16.652Z,-2.64
2022-12-08T03:43:43.950Z,-2.68
2022-12-08T03:46:11.284Z,-2.84
2022-12-08T03:48:38.626Z,-2.89
2022-12-08T03:51:05.952Z,-2.86
2022-12-08T03:53:32.959Z,-2.83
2022-12-08T03:55:59.901Z,-2.87
2022-12-08T03:58:27.169Z,-2.85
2022-12-08T04:00:54.527Z,-2.85
2022-12-08T04:03:21.567Z,-2.83
2022-12-08T04:05:48.988Z,-2.91
2022-12-08T04:08:16.365Z,-3.04
2022-12-08T04:10:43.808Z,-2.91
2022-12-08T04:13:11.148Z,-2.84
2022-12-08T04:15:38.191Z,-2.94
2022-12-08T04:18:05.499Z,-3.00
2022-12-08T04:20:32.884Z,-3.10
2022-12-08T04:23:00.242Z,-3.07
2022-12-08T04:25:27.764Z,-3.18
2022-12-08T04:27:56.297Z,-3.27
2022-12-08T04:30:23.698Z,-3.35
2022-12-08T04:32:51.041Z,-3.35
2022-12-08T04:35:18.367Z,-3.21
2022-12-08T04:37:45.716Z,-3.36
2022-12-08T04:40:13.623Z,-3.41
2022-12-08T04:42:41.011Z,-3.45
2022-12-08T04:45:08.731Z,-3.29
2022-12-08T04:47:36.059Z,-3.28
2022-12-08T04:50:04.548Z,-3.31
2022-12-08T04:52:31.757Z,-3.34
2022-12-08T04:54:58.680Z,-3.29
2022-12-08T04:57:25.678Z,-3.30
2022-12-08T04:59:52.830Z,-3.30
2022-12-08T05:02:19.878Z,-3.31
2022-12-08T05:04:47.379Z,-3.30
2022-12-08T05:07:14.311Z,-3.42
2022-12-08T05:09:41.299Z,-3.40
2022-12-08T05:12:08.615Z,-3.47
2022-12-08T05:14:35.567Z,-3.53
2022-12-08T05:17:07.730Z,-3.58
2022-12-08T05:19:37.001Z,-3.29
2022-12-08T05:22:03.997Z,-3.09
2022-12-08T05:24:30.958Z,-3.33
2022-12-08T05:26:58.260Z,-2.98
2022-12-08T05:29:25.238Z,-2.98
2022-12-08T05:31:52.285Z,-3.02
2022-12-08T05:34:19.324Z,-3.12
2022-12-08T05:36:46.284Z,-2.61
2022-12-08T05:39:14.569Z,-2.75
2022-12-08T05:41:42.282Z,-2.68
2022-12-08T05:44:09.320Z,-2.44
2022-12-08T05:46:36.715Z,-2.66
2022-12-08T05:49:04.618Z,-2.52
2022-12-08T05:51:31.605Z,-2.48
2022-12-08T05:53:58.789Z,-2.72
2022-12-08T05:56:27.135Z,-2.72
2022-12-08T05:58:55.075Z,-2.93
2022-12-08T06:01:28.998Z,-2.86
2022-12-08T06:03:57.277Z,-3.08
2022-12-08T06:06:24.767Z,-3.24
2022-12-08T06:08:52.231Z,-3.28
2022-12-08T06:11:25.400Z,-3.34
2022-12-08T06:13:53.240Z,-3.28
2022-12-08T06:16:20.286Z,-3.10
2022-12-08T06:18:47.706Z,-2.82
2022-12-08T06:21:16.364Z,-3.08
2022-12-08T06:23:44.280Z,-3.08
2022-12-08T06:26:14.750Z,-3.30
2022-12-08T06:28:42.684Z,-3.53
2022-12-08T06:31:12.104Z,-3.42
2022-12-08T06:33:39.538Z,-3.08
2022-12-08T06:36:07.474Z,-3.18
2022-12-08T06:38:38.210Z,-2.98
2022-12-08T06:41:09.336Z,-3.43
2022-12-08T06:43:36.795Z,-3.32
2022-12-08T06:46:08.127Z,-3.03
2022-12-08T06:48:35.195Z,-3.04
2022-12-08T06:51:10.189Z,-3.58
2022-12-08T06:53:38.339Z,-3.79
2022-12-08T06:56:06.106Z,-3.87
2022-12-08T06:58:33.630Z,-3.94
2022-12-08T07:01:10.674Z,-4.03
2022-12-08T07:03:39.208Z,-3.49
2022-12-08T07:06:07.122Z,-3.66
2022-12-08T07:08:35.184Z,-3.70
2022-12-08T07:11:18.082Z,-3.83
2022-12-08T07:13:48.058Z,-3.92
2022-12-08T07:16:15.204Z,-4.03
2022-12-08T07:18:43.029Z,-3.90
2022-12-08T07:21:13.237Z,-3.88
2022-12-08T07:23:40.631Z,-3.81
2022-12-08T07:26:10.624Z,-3.76
2022-12-08T07:28:40.804Z,-3.77
2022-12-08T07:31:15.911Z,-3.71
2022-12-08T07:33:43.246Z,-3.60
2022-12-08T07:36:10.240Z,-3.47
2022-12-08T07:38:37.232Z,-3.16
2022-12-08T07:41:04.359Z,-2.94
2022-12-08T07:43:31.294Z,-2.48
2022-12-08T07:45:58.270Z,-2.08
2022-12-08T07:48:25.318Z,-1.79
2022-12-08T07:51:00.148Z,-1.49
2022-12-08T07:53:27.107Z,-1.18
2022-12-08T07:55:54.100Z,-0.97
2022-12-08T07:58:21.067Z,-0.79
2022-12-08T08:00:48.035Z,-0.61
2022-12-08T08:03:15.272Z,-0.62
2022-12-08T08:05:43.498Z,-0.22
2022-12-08T08:08:11.329Z,0.13
2022-12-08T08:10:38.322Z,0.41
2022-12-08T08:13:05.335Z,0.65
2022-12-08T08:15:32.400Z,0.97
2022-12-08T08:17:59.415Z,1.24
2022-12-08T08:20:26.556Z,1.53
2022-12-08T08:22:53.564Z,1.85
2022-12-08T08:25:22.724Z,2.14
2022-12-08T08:27:50.437Z,2.39
2022-12-08T08:30:20.762Z,2.62
2022-12-08T08:32:49.598Z,2.80
2022-12-08T08:35:17.277Z,3.17
2022-12-08T08:37:48.614Z,3.42
2022-12-08T08:40:17.880Z,4.05
2022-12-08T08:42:44.852Z,4.10
2022-12-08T08:45:12.171Z,3.91
2022-12-08T08:47:39.137Z,3.99
2022-12-08T08:50:07.772Z,4.82
2022-12-08T08:52:35.001Z,5.24
2022-12-08T08:55:02.197Z,6.13
2022-12-08T08:57:29.185Z,6.43
2022-12-08T08:59:56.147Z,6.30
2022-12-08T09:02:23.475Z,7.16
2022-12-08T09:04:51.405Z,7.13
2022-12-08T09:07:18.511Z,6.75
2022-12-08T09:09:45.455Z,6.40
2022-12-08T09:12:13.508Z,7.03
2022-12-08T09:14:40.643Z,6.49
2022-12-08T09:17:08.573Z,7.32
2022-12-08T09:19:35.586Z,6.02
2022-12-08T09:22:02.626Z,6.38
2022-12-08T09:24:29.603Z,7.19
2022-12-08T09:26:57.005Z,8.03
2022-12-08T09:29:25.565Z,7.72
2022-12-08T09:31:54.682Z,7.17
2022-12-08T09:34:21.742Z,6.65
2022-12-08T09:36:48.684Z,7.35
2022-12-08T09:39:15.650Z,5.74
2022-12-08T09:41:48.373Z,6.13
2022-12-08T09:45:09.768Z,5.62
2022-12-08T09:47:48.788Z,4.90
2022-12-08T09:50:30.742Z,4.10
2022-12-08T09:53:13.660Z,5.74
2022-12-08T09:55:47.181Z,5.83
2022-12-08T09:58:29.534Z,5.55
2022-12-08T10:00:56.624Z,4.48
2022-12-08T10:03:30.053Z,5.10
2022-12-08T10:06:33.288Z,4.79
2022-12-08T10:09:34.444Z,5.12
2022-12-08T10:12:23.990Z,5.50
2022-12-08T10:15:18.564Z,5.12
2022-12-08T10:17:49.455Z,5.47
2022-12-08T10:20:23.533Z,5.24
2022-12-08T10:22:58.520Z,6.01
2022-12-08T10:25:35.217Z,6.04
2022-12-08T10:28:02.387Z,5.97
2022-12-08T10:30:31.630Z,6.00
2022-12-08T10:32:58.668Z,5.52
2022-12-08T10:35:43.084Z,6.75
2022-12-08T10:38:24.061Z,6.38
2022-12-08T10:41:04.138Z,5.65
2022-12-08T10:43:32.148Z,5.70
2022-12-08T10:46:13.650Z,7.01
2022-12-08T10:49:03.237Z,6.99
2022-12-08T10:51:30.434Z,5.61
2022-12-08T10:53:57.573Z,4.29
2022-12-08T10:56:31.003Z,4.13
2022-12-08T10:59:19.226Z,3.53
2022-12-08T11:01:51.985Z,3.50
2022-12-08T11:04:23.308Z,3.41
2022-12-08T11:06:51.742Z,2.99
2022-12-08T11:09:18.649Z,3.11
2022-12-08T11:11:45.489Z,3.09
2022-12-08T11:14:44.197Z,3.34
2022-12-08T11:17:17.097Z,3.10
2022-12-08T11:19:57.865Z,3.21
2022-12-08T11:22:32.672Z,3.76
2022-12-08T11:24:59.919Z,3.24
2022-12-08T11:27:27.272Z,3.11
2022-12-08T11:29:54.425Z,2.96
2022-12-08T11:32:22.560Z,2.86
2022-12-08T11:34:59.388Z,2.89
2022-12-08T11:37:36.064Z,3.33
2022-12-08T11:40:23.243Z,3.36
2022-12-08T11:43:12.250Z,3.85
2022-12-08T11:45:41.792Z,4.04
2022-12-08T11:48:26.705Z,4.48
2022-12-08T11:51:04.071Z,4.72
2022-12-08T11:53:49.267Z,4.75
2022-12-08T11:56:29.613Z,4.66
2022-12-08T11:59:03.153Z,4.40
2022-12-08T12:01:30.258Z,4.22
2022-12-08T12:04:27.671Z,4.10
2022-12-08T12:07:52.156Z,3.84
2022-12-08T12:10:52.761Z,4.12
2022-12-08T12:13:37.640Z,4.41
2022-12-08T12:16:41.856Z,4.64
2022-12-08T12:19:18.615Z,4.60
2022-12-08T12:22:06.856Z,4.32
2022-12-08T12:24:37.736Z,4.63
2022-12-08T12:27:16.456Z,4.84
2022-12-08T12:30:07.306Z,4.43
2022-12-08T12:33:03.725Z,4.37
2022-12-08T12:35:40.923Z,4.79
2022-12-08T12:38:37.818Z,4.84
2022-12-08T12:41:07.436Z,4.63
2022-12-08T12:43:37.939Z,4.21
2022-12-08T12:46:41.848Z,4.11
2022-12-08T12:49:40.030Z,4.45
2022-12-08T12:52:09.636Z,4.54
2022-12-08T12:54:36.624Z,4.08
2022-12-08T12:57:25.788Z,4.10
2022-12-08T12:59:55.478Z,4.11
2022-12-08T13:02:39.980Z,3.85
2022-12-08T13:05:16.782Z,3.70
2022-12-08T13:08:02.132Z,3.26
2022-12-08T13:10:41.252Z,3.42
2022-12-08T13:13:18.687Z,3.71
2022-12-08T13:16:18.469Z,3.94
2022-12-08T13:18:51.500Z,4.22
2022-12-08T13:21:23.984Z,4.40
2022-12-08T13:24:13.041Z,4.44
2022-12-08T13:27:03.323Z,4.65
2022-12-08T13:29:32.115Z,3.77
2022-12-08T13:32:04.929Z,3.63
2022-12-08T13:34:36.896Z,3.57
2022-12-08T13:37:31.856Z,3.69
2022-12-08T13:40:06.327Z,3.85
2022-12-08T13:43:05.891Z,3.78
2022-12-08T13:46:20.232Z,3.56
2022-12-08T13:50:23.361Z,3.50
2022-12-08T13:53:49.491Z,3.50
2022-12-08T13:55:49.659Z,3.78
2022-12-08T13:57:37.193Z,3.93
2022-12-08T14:00:19.700Z,4.11
2022-12-08T14:02:50.262Z,4.03
2022-12-08T14:05:35.221Z,3.71
2022-12-08T14:08:50.416Z,3.52
2022-12-08T14:11:08.849Z,3.52
2022-12-08T14:13:35.894Z,3.61
2022-12-08T14:16:02.952Z,3.80
2022-12-08T14:18:31.729Z,3.80
2022-12-08T14:21:27.883Z,3.36
2022-12-08T14:24:03.131Z,3.20
2022-12-08T14:26:34.436Z,3.26
2022-12-08T14:29:02.032Z,3.19
2022-12-08T14:31:29.446Z,3.13
2022-12-08T14:33:56.794Z,3.02
2022-12-08T14:36:23.971Z,2.97
2022-12-08T14:38:54.719Z,2.91
2022-12-08T14:41:28.059Z,2.89
2022-12-08T14:44:01.226Z,2.84
2022-12-08T14:46:28.871Z,2.76
2022-12-08T14:48:57.070Z,2.70
2022-12-08T14:51:32.906Z,2.70
2022-12-08T14:54:13.335Z,2.68
2022-12-08T14:56:50.345Z,2.66
2022-12-08T14:59:31.604Z,2.67
2022-12-08T15:02:34.504Z,2.71
2022-12-08T15:05:12.285Z,2.68
2022-12-08T15:07:50.518Z,2.67
2022-12-08T15:10:17.441Z,2.60
2022-12-08T15:13:08.791Z,2.61
2022-12-08T15:15:57.882Z,2.57
2022-12-08T15:18:38.512Z,2.49
2022-12-08T15:21:09.112Z,2.47
2022-12-08T15:23:46.503Z,2.43
2022-12-08T15:26:42.458Z,2.42
2022-12-08T15:29:28.857Z,2.41
2022-12-08T15:31:59.955Z,2.41
2022-12-08T15:34:27.186Z,2.41
2022-12-08T15:36:55.375Z,2.43
2022-12-08T15:39:31.877Z,2.39
2022-12-08T15:42:00.210Z,2.37
2022-12-08T15:44:27.642Z,2.35
2022-12-08T15:46:55.155Z,2.32
2022-12-08T15:49:24.367Z,2.33
2022-12-08T15:51:57.388Z,2.33
2022-12-08T15:54:31.866Z,2.29
2022-12-08T15:59:46.124Z,2.24
2022-12-08T16:02:18.007Z,2.25
2022-12-08T16:07:38.164Z,2.21
2022-12-08T16:10:07.609Z,2.22
2022-12-08T16:16:00.765Z,2.15
2022-12-08T16:18:34.391Z,2.11
2022-12-08T16:21:41.768Z,2.12
2022-12-08T16:23:49.116Z,2.06
2022-12-08T16:26:49.115Z,2.02
2022-12-08T16:29:08.431Z,2.00
2022-12-08T16:31:35.568Z,2.05
2022-12-08T16:34:02.779Z,2.16
2022-12-08T16:36:29.751Z,2.18
2022-12-08T16:38:56.735Z,2.24
2022-12-08T16:41:42.267Z,2.26
2022-12-08T16:44:09.869Z,2.21
2022-12-08T16:46:37.184Z,2.18
2022-12-08T16:49:08.402Z,2.23
2022-12-08T16:51:35.464Z,2.25
2022-12-08T16:54:02.398Z,2.07
2022-12-08T16:56:33.094Z,1.95
2022-12-08T16:59:02.021Z,1.84
2022-12-08T17:01:29.374Z,1.98
2022-12-08T17:04:29.350Z,1.97
2022-12-08T17:06:43.383Z,1.84
2022-12-08T17:09:10.292Z,1.85
2022-12-08T17:11:42.611Z,1.81
2022-12-08T17:14:12.430Z,1.78
2022-12-08T17:16:40.418Z,1.77
2022-12-08T17:19:07.772Z,1.79
2022-12-08T17:21:34.868Z,1.75
2022-12-08T17:24:01.781Z,1.66
2022-12-08T17:26:28.746Z,1.57
2022-12-08T17:29:02.765Z,1.58
2022-12-08T17:31:32.532Z,1.58
2022-12-08T17:34:05.487Z,1.56
2022-12-08T17:36:32.649Z,1.56
2022-12-08T17:39:01.113Z,1.53
2022-12-08T17:41:29.164Z,1.53
2022-12-08T17:43:56.466Z,1.53
2022-12-08T17:46:23.868Z,1.47
2022-12-08T17:48:51.075Z,1.54
2022-12-08T17:51:18.576Z,1.49
2022-12-08T17:53:45.537Z,1.65
2022-12-08T17:56:21.484Z,1.66
2022-12-08T17:58:54.373Z,1.92
2022-12-08T18:01:23.885Z,1.97
2022-12-08T18:03:51.636Z,2.05
2022-12-08T18:06:18.640Z,2.00
2022-12-08T18:08:45.842Z,1.66
2022-12-08T18:11:19.795Z,1.55
2022-12-08T18:13:52.035Z,1.50
2022-12-08T18:16:21.648Z,1.49
2022-12-08T18:18:49.149Z,1.47
2022-12-08T18:21:23.049Z,1.44
2022-12-08T18:23:51.229Z,1.39
2022-12-08T18:26:18.211Z,1.36
2022-12-08T18:28:45.177Z,1.32
2022-12-08T18:31:19.007Z,1.31
2022-12-08T18:33:48.285Z,1.28
2022-12-08T18:36:25.905Z,1.32
2022-12-08T18:38:53.447Z,1.26
2022-12-08T18:41:24.572Z,1.40
2022-12-08T18:43:53.203Z,1.34
2022-12-08T18:46:20.277Z,1.26
2022-12-08T18:48:49.666Z,1.26
2022-12-08T18:51:20.523Z,1.32
2022-12-08T18:53:48.592Z,1.25
2022-12-08T18:56:35.323Z,1.24
2022-12-08T18:59:10.733Z,1.26
2022-12-08T19:01:39.701Z,1.35
2022-12-08T19:04:27.825Z,1.44
2022-12-08T19:06:56.381Z,1.59
2022-12-08T19:09:26.898Z,1.64
2022-12-08T19:11:55.061Z,1.66
2022-12-08T19:14:27.879Z,1.69
2022-12-08T19:16:55.370Z,1.73
2022-12-08T19:19:22.412Z,1.64
2022-12-08T19:21:49.719Z,1.68
2022-12-08T19:24:16.723Z,1.53
2022-12-08T19:26:44.225Z,1.60
2022-12-08T19:29:12.368Z,1.81
2022-12-08T19:31:40.206Z,1.78
2022-12-08T19:34:09.193Z,1.83
2022-12-08T19:36:42.160Z,1.94
2022-12-08T19:39:37.898Z,1.90
2022-12-08T19:42:38.223Z,1.64
2022-12-08T19:45:15.885Z,1.28
2022-12-08T19:47:43.330Z,1.42
2022-12-08T19:50:31.769Z,1.33
2022-12-08T19:52:59.541Z,1.35
2022-12-08T19:55:27.004Z,1.56
2022-12-08T19:57:56.607Z,1.59
2022-12-08T20:00:23.931Z,1.26
2022-12-08T20:02:51.401Z,1.38
2022-12-08T20:05:18.690Z,1.31
2022-12-08T20:07:45.777Z,1.11
2022-12-08T20:10:21.944Z,0.99
2022-12-08T20:12:48.976Z,0.70
2022-12-08T20:15:16.037Z,0.56
2022-12-08T20:17:43.484Z,0.84
2022-12-08T20:20:12.417Z,0.87
2022-12-08T20:22:39.648Z,0.50
2022-12-08T20:25:07.611Z,0.15
2022-12-08T20:27:34.672Z,-0.04
2022-12-08T20:30:01.625Z,-0.15
2022-12-08T20:32:28.630Z,-0.23
2022-12-08T20:34:55.643Z,-0.19
2022-12-08T20:37:22.646Z,-0.30
2022-12-08T20:39:49.675Z,-0.13
2022-12-08T20:42:16.757Z,-0.23
2022-12-08T20:44:44.501Z,-0.26
2022-12-08T20:47:13.147Z,-0.31
2022-12-08T20:49:40.340Z,-0.35
2022-12-08T20:52:08.558Z,-0.35
2022-12-08T20:54:37.072Z,-0.42
2022-12-08T20:57:04.652Z,-0.48
2022-12-08T20:59:32.117Z,-0.57
2022-12-08T21:02:00.413Z,-0.61
2022-12-08T21:04:28.144Z,-0.66
2022-12-08T21:06:55.414Z,-0.70
2022-12-08T21:09:22.669Z,-0.79
2022-12-08T21:11:50.107Z,-0.92
2022-12-08T21:14:17.077Z,-1.02
2022-12-08T21:16:44.288Z,-1.10
2022-12-08T21:19:12.207Z,-1.25
2022-12-08T21:21:39.377Z,-1.28
2022-12-08T21:24:07.206Z,-1.23
2022-12-08T21:26:34.518Z,-1.20
2022-12-08T21:29:01.516Z,-1.25
2022-12-08T21:31:31.816Z,-1.35
2022-12-08T21:33:59.897Z,-1.38
2022-12-08T21:36:27.170Z,-1.42
2022-12-08T21:38:55.008Z,-1.49
2022-12-08T21:41:42.606Z,-1.52
2022-12-08T21:44:18.716Z,-1.56
2022-12-08T21:46:45.985Z,-1.63
2022-12-08T21:49:13.240Z,-1.69
2022-12-08T21:51:42.302Z,-1.69
2022-12-08T21:54:18.046Z,-1.53
2022-12-08T21:56:47.256Z,-1.73
2022-12-08T21:59:15.342Z,-1.90
2022-12-08T22:01:45.300Z,-1.97
2022-12-08T22:04:17.658Z,-2.00
2022-12-08T22:06:44.958Z,-2.02
2022-12-08T22:09:13.448Z,-2.16
2022-12-08T22:11:41.745Z,-2.21
2022-12-08T22:14:14.074Z,-2.29
2022-12-08T22:16:43.064Z,-2.39
2022-12-08T22:19:10.712Z,-2.51
2022-12-08T22:21:38.224Z,-2.56
2022-12-08T22:24:05.827Z,-2.54
2022-12-08T22:26:33.210Z,-2.51
2022-12-08T22:29:00.453Z,-2.57
2022-12-08T22:31:27.817Z,-2.55
2022-12-08T22:33:54.963Z,-2.63
2022-12-08T22:36:24.636Z,-2.61
2022-12-08T22:38:53.448Z,-2.63
2022-12-08T22:41:21.644Z,-2.81
2022-12-08T22:43:49.742Z,-2.84
2022-12-08T22:46:23.429Z,-2.75
2022-12-08T22:48:51.883Z,-2.79
2022-12-08T22:51:19.387Z,-2.83
2022-12-08T22:53:47.225Z,-2.81
2022-12-08T22:56:16.155Z,-2.84
2022-12-08T22:58:44.510Z,-2.50
2022-12-08T23:01:27.222Z,-2.46
2022-12-08T23:03:54.983Z,-2.24
2022-12-08T23:06:22.148Z,-2.59
2022-12-08T23:08:49.807Z,-2.72
2022-12-08T23:11:17.616Z,-2.78
2022-12-08T23:13:44.986Z,-2.88
2022-12-08T23:16:13.130Z,-2.37
2022-12-08T23:18:45.477Z,-2.62
2022-12-08T23:21:19.905Z,-2.80
2022-12-08T23:23:47.320Z,-2.85
2022-12-08T23:26:24.255Z,-2.87
2022-12-08T23:28:51.891Z,-2.95
2022-12-08T23:31:20.170Z,-3.08
2022-12-08T23:33:47.864Z,-3.18
2022-12-08T23:36:16.679Z,-3.16
2022-12-08T23:38:44.261Z,-3.07
2022-12-08T23:41:14.204Z,-3.23
2022-12-08T23:43:47.308Z,-3.32
2022-12-08T23:46:16.263Z,-3.20
2022-12-08T23:48:43.764Z,-3.20
2022-12-08T23:51:11.785Z,-3.12
2022-12-08T23:53:39.132Z,-2.86
2022-12-08T23:56:10.607Z,-3.24
2022-12-08T23:58:38.609Z,-3.28
